createdAt,value
2019-03-15T00:01:58.945Z,88.84
2019-03-15T00:04:27.289Z,88.22
2019-03-15T00:06:55.628Z,88.85
2019-03-15T00:09:23.968Z,88.55
2019-03-15T00:11:52.439Z,88.66
2019-03-15T00:14:20.803Z,88.26
2019-03-15T00:19:23.336Z,87.22
2019-03-15T00:21:53.587Z,88.55
2019-03-15T00:26:56.173Z,88.80
2019-03-15T00:32:01.798Z,89.02
2019-03-15T00:34:30.132Z,88.67
2019-03-15T00:36:58.467Z,88.23
2019-03-15T00:39:26.830Z,89.05
2019-03-15T00:41:55.199Z,87.57
2019-03-15T00:44:26.985Z,88.26
2019-03-15T00:49:29.552Z,89.60
2019-03-15T00:51:58.868Z,90.86
2019-03-15T00:54:27.214Z,92.62
2019-03-15T00:56:55.535Z,93.71
2019-03-15T00:59:23.887Z,95.23
2019-03-15T01:04:26.497Z,97.40
2019-03-15T01:06:54.848Z,97.27
2019-03-15T01:09:23.176Z,98.07
2019-03-15T01:11:52.472Z,99.40
2019-03-15T01:14:20.828Z,100.00
2019-03-15T01:16:49.224Z,100.00
2019-03-15T01:19:17.586Z,100.00
2019-03-15T01:21:45.917Z,100.00
2019-03-15T01:24:14.685Z,100.00
2019-03-15T01:26:44.121Z,100.00
2019-03-15T01:29:12.496Z,100.00
2019-03-15T01:31:40.874Z,100.00
2019-03-15T01:34:10.196Z,100.00
2019-03-15T01:36:38.525Z,100.00
2019-03-15T01:39:06.969Z,100.00
2019-03-15T01:41:35.319Z,100.00
2019-03-15T01:44:04.549Z,100.00
2019-03-15T01:46:33.658Z,100.00
2019-03-15T01:51:35.527Z,100.00
2019-03-15T01:54:03.868Z,100.00
2019-03-15T01:56:32.202Z,100.00
2019-03-15T01:59:00.548Z,100.00
2019-03-15T02:01:28.890Z,100.00
2019-03-15T02:03:57.239Z,100.00
2019-03-15T02:06:25.626Z,100.00
2019-03-15T02:08:55.174Z,100.00
2019-03-15T02:11:23.516Z,100.00
2019-03-15T02:13:51.856Z,100.00
2019-03-15T02:16:20.196Z,100.00
2019-03-15T02:21:23.656Z,100.00
2019-03-15T02:26:27.224Z,100.00
2019-03-15T02:28:56.515Z,100.00
2019-03-15T02:31:25.009Z,100.00
2019-03-15T02:33:54.263Z,99.75
2019-03-15T02:36:22.613Z,99.07
2019-03-15T02:38:52.001Z,99.64
2019-03-15T02:41:20.444Z,99.53
2019-03-15T02:43:48.805Z,99.61
2019-03-15T02:46:17.194Z,99.43
2019-03-15T02:51:19.901Z,99.01
2019-03-15T02:53:51.709Z,98.78
2019-03-15T02:56:20.047Z,98.46
2019-03-15T02:58:48.376Z,98.57
2019-03-15T03:01:16.725Z,98.36
2019-03-15T03:03:45.160Z,98.21
2019-03-15T03:08:49.684Z,98.21
2019-03-15T03:11:18.050Z,97.67
2019-03-15T03:13:46.348Z,97.57
2019-03-15T03:16:14.699Z,97.68
2019-03-15T03:21:18.275Z,97.12
2019-03-15T03:23:52.161Z,97.84
2019-03-15T03:26:20.501Z,98.03
2019-03-15T03:28:54.050Z,97.68
2019-03-15T03:31:21.061Z,97.35
2019-03-15T03:33:51.321Z,97.79
2019-03-15T03:36:19.690Z,97.55
2019-03-15T03:41:23.482Z,97.83
2019-03-15T03:43:51.820Z,97.71
2019-03-15T03:46:20.160Z,97.84
2019-03-15T03:48:49.453Z,97.66
2019-03-15T03:51:17.810Z,97.08
2019-03-15T03:53:46.120Z,96.69
2019-03-15T03:56:15.398Z,97.05
2019-03-15T03:58:43.754Z,97.14
2019-03-15T04:01:16.445Z,96.53
2019-03-15T04:03:44.857Z,96.32
2019-03-15T04:06:14.088Z,96.23
2019-03-15T04:08:43.336Z,96.23
2019-03-15T04:11:11.665Z,96.13
2019-03-15T04:13:40.013Z,95.75
2019-03-15T04:18:46.506Z,94.49
2019-03-15T04:21:15.783Z,95.17
2019-03-15T04:23:44.123Z,94.17
2019-03-15T04:26:12.448Z,93.90
2019-03-15T04:28:40.797Z,94.53
2019-03-15T04:31:13.055Z,94.79
2019-03-15T04:33:41.389Z,94.27
2019-03-15T04:36:09.731Z,93.71
2019-03-15T04:38:38.082Z,93.74
2019-03-15T04:41:06.564Z,93.15
2019-03-15T04:43:35.943Z,92.95
2019-03-15T04:46:04.293Z,93.81
2019-03-15T04:48:32.660Z,92.78
2019-03-15T04:51:00.970Z,92.83
2019-03-15T04:53:30.322Z,93.10
2019-03-15T04:56:03.717Z,91.44
2019-03-15T04:58:33.004Z,92.02
2019-03-15T05:01:01.405Z,92.56
2019-03-15T05:03:29.719Z,92.30
2019-03-15T05:06:03.503Z,92.48
2019-03-15T05:08:26.429Z,92.17
2019-03-15T05:10:55.737Z,91.94
2019-03-15T05:13:24.972Z,91.61
2019-03-15T05:15:54.244Z,91.76
2019-03-15T05:18:22.586Z,92.33
2019-03-15T05:20:50.983Z,92.24
2019-03-15T05:23:20.323Z,91.70
2019-03-15T05:25:48.672Z,91.85
2019-03-15T05:30:51.331Z,92.03
2019-03-15T05:33:20.324Z,92.25
2019-03-15T05:35:48.661Z,92.05
2019-03-15T05:40:54.273Z,91.37
2019-03-15T05:43:22.611Z,92.50
2019-03-15T05:45:50.968Z,94.91
2019-03-15T05:48:19.707Z,97.19
2019-03-15T05:50:48.036Z,98.19
2019-03-15T05:53:17.306Z,99.92
2019-03-15T05:55:45.795Z,100.00
2019-03-15T05:58:14.145Z,100.00
2019-03-15T06:00:42.508Z,100.00
2019-03-15T06:03:12.720Z,100.00
2019-03-15T06:05:40.156Z,100.00
2019-03-15T06:08:08.512Z,100.00
2019-03-15T06:10:36.864Z,100.00
2019-03-15T06:13:05.228Z,100.00
2019-03-15T06:15:33.591Z,100.00
2019-03-15T06:18:01.972Z,100.00
2019-03-15T06:20:30.289Z,100.00
2019-03-15T06:22:58.628Z,100.00
2019-03-15T06:25:26.975Z,100.00
2019-03-15T06:27:55.313Z,98.65
2019-03-15T06:30:24.552Z,97.69
2019-03-15T06:32:52.900Z,96.44
2019-03-15T06:35:22.184Z,96.27
2019-03-15T06:37:50.510Z,95.71
2019-03-15T06:40:18.876Z,95.15
2019-03-15T06:42:47.207Z,94.18
2019-03-15T06:45:16.539Z,93.81
2019-03-15T06:47:44.961Z,93.91
2019-03-15T06:50:14.231Z,92.63
2019-03-15T06:52:42.565Z,92.05
2019-03-15T06:57:45.217Z,92.54
2019-03-15T07:00:13.548Z,92.81
2019-03-15T07:05:20.660Z,93.18
2019-03-15T07:07:48.507Z,91.72
2019-03-15T07:10:26.671Z,92.29
2019-03-15T07:12:55.018Z,92.86
2019-03-15T07:15:27.532Z,92.22
2019-03-15T07:17:56.798Z,91.51
2019-03-15T07:20:25.159Z,91.18
2019-03-15T07:22:53.521Z,90.96
2019-03-15T07:27:58.309Z,90.84
2019-03-15T07:30:30.788Z,90.64
2019-03-15T07:33:01.032Z,91.76
2019-03-15T07:35:43.867Z,91.69
2019-03-15T07:40:48.458Z,93.44
2019-03-15T07:43:40.280Z,93.84
2019-03-15T07:46:11.854Z,95.37
2019-03-15T07:48:42.107Z,95.13
2019-03-15T07:53:47.647Z,97.57
2019-03-15T07:56:21.360Z,98.78
2019-03-15T07:59:04.502Z,99.31
2019-03-15T08:01:40.434Z,100.00
2019-03-15T08:04:16.687Z,100.00
2019-03-15T08:06:43.838Z,100.00
2019-03-15T08:09:12.316Z,100.00
2019-03-15T08:11:54.046Z,100.00
2019-03-15T08:16:56.578Z,100.00
2019-03-15T08:22:03.053Z,100.00
2019-03-15T08:24:36.482Z,100.00
2019-03-15T08:27:02.664Z,100.00
2019-03-15T08:29:31.061Z,100.00
2019-03-15T08:32:00.389Z,100.00
2019-03-15T08:37:04.953Z,100.00
2019-03-15T08:39:34.313Z,100.00
2019-03-15T08:42:02.656Z,100.00
2019-03-15T08:44:32.011Z,100.00
2019-03-15T08:47:02.327Z,100.00
2019-03-15T08:49:30.656Z,100.00
2019-03-15T08:52:03.814Z,100.00
2019-03-15T08:54:27.343Z,100.00
2019-03-15T08:56:55.716Z,100.00
2019-03-15T08:59:24.043Z,100.00
2019-03-15T09:01:52.409Z,100.00
2019-03-15T09:07:03.689Z,100.00
2019-03-15T09:09:31.998Z,100.00
2019-03-15T09:12:00.380Z,100.00
2019-03-15T09:14:28.728Z,100.00
2019-03-15T09:16:57.072Z,100.00
2019-03-15T09:19:26.343Z,100.00
2019-03-15T09:21:54.685Z,100.00
2019-03-15T09:24:24.949Z,100.00
2019-03-15T09:26:53.292Z,100.00
2019-03-15T09:29:21.632Z,100.00
2019-03-15T09:31:50.005Z,100.00
2019-03-15T09:34:19.307Z,100.00
2019-03-15T09:36:50.393Z,100.00
2019-03-15T09:39:16.048Z,100.00
2019-03-15T09:41:45.295Z,100.00
2019-03-15T09:44:13.631Z,100.00
2019-03-15T09:46:42.982Z,100.00
2019-03-15T09:49:11.323Z,100.00
2019-03-15T09:51:39.664Z,100.00
2019-03-15T09:54:08.024Z,100.00
2019-03-15T09:56:37.313Z,100.00
2019-03-15T09:59:05.656Z,100.00
2019-03-15T10:01:35.517Z,100.00
2019-03-15T10:04:02.356Z,100.00
2019-03-15T10:06:30.704Z,100.00
2019-03-15T10:08:59.058Z,100.00
2019-03-15T10:11:27.396Z,100.00
2019-03-15T10:13:56.711Z,100.00
2019-03-15T10:16:25.070Z,100.00
2019-03-15T10:18:53.420Z,100.00
2019-03-15T10:21:21.833Z,100.00
2019-03-15T10:23:50.180Z,100.00
2019-03-15T10:26:19.041Z,100.00
2019-03-15T10:28:47.387Z,100.00
2019-03-15T10:31:16.644Z,100.00
2019-03-15T10:33:50.295Z,100.00
2019-03-15T10:36:13.320Z,100.00
2019-03-15T10:38:41.676Z,100.00
2019-03-15T10:41:10.030Z,100.00
2019-03-15T10:43:38.365Z,100.00
2019-03-15T10:46:08.685Z,100.00
2019-03-15T10:48:37.996Z,100.00
2019-03-15T10:51:06.332Z,100.00
2019-03-15T10:53:34.688Z,100.00
2019-03-15T10:56:03.036Z,100.00
2019-03-15T10:58:31.401Z,100.00
2019-03-15T11:00:59.740Z,100.00
2019-03-15T11:03:28.127Z,100.00
2019-03-15T11:05:56.468Z,100.00
2019-03-15T11:08:24.814Z,100.00
2019-03-15T11:10:54.177Z,100.00
2019-03-15T11:13:22.517Z,100.00
2019-03-15T11:15:51.830Z,100.00
2019-03-15T11:18:21.144Z,100.00
2019-03-15T11:20:49.477Z,100.00
2019-03-15T11:23:17.825Z,100.00
2019-03-15T11:25:46.179Z,100.00
2019-03-15T11:28:14.507Z,100.00
2019-03-15T11:30:43.783Z,100.00
2019-03-15T11:33:12.127Z,100.00
2019-03-15T11:35:40.488Z,100.00
2019-03-15T11:38:08.838Z,100.00
2019-03-15T11:40:38.129Z,100.00
2019-03-15T11:43:06.425Z,100.00
2019-03-15T11:45:35.720Z,100.00
2019-03-15T11:48:04.581Z,100.00
2019-03-15T11:50:32.494Z,100.00
2019-03-15T11:53:00.853Z,100.00
2019-03-15T11:55:29.225Z,100.00
2019-03-15T11:57:57.576Z,100.00
2019-03-15T12:00:25.924Z,100.00
2019-03-15T12:02:54.282Z,100.00
2019-03-15T12:05:22.638Z,100.00
2019-03-15T12:07:50.960Z,100.00
2019-03-15T12:10:19.302Z,100.00
2019-03-15T12:12:47.668Z,100.00
2019-03-15T12:15:19.176Z,100.00
2019-03-15T12:17:47.536Z,100.00
2019-03-15T12:20:15.887Z,100.00
2019-03-15T12:22:44.255Z,100.00
2019-03-15T12:25:13.526Z,100.00
2019-03-15T12:27:41.861Z,100.00
2019-03-15T12:30:13.585Z,100.00
2019-03-15T12:32:43.929Z,100.00
2019-03-15T12:35:12.280Z,100.00
2019-03-15T12:37:40.624Z,100.00
2019-03-15T12:40:11.510Z,100.00
2019-03-15T12:42:39.845Z,100.00
2019-03-15T12:45:09.020Z,100.00
2019-03-15T12:47:37.332Z,100.00
2019-03-15T12:50:08.401Z,100.00
2019-03-15T12:52:46.507Z,100.00
2019-03-15T12:55:05.171Z,100.00
2019-03-15T12:57:33.545Z,100.00
2019-03-15T13:00:01.903Z,100.00
2019-03-15T13:02:31.220Z,100.00
2019-03-15T13:05:00.493Z,100.00
2019-03-15T13:07:28.840Z,100.00
2019-03-15T13:09:57.180Z,100.00
2019-03-15T13:12:26.474Z,100.00
2019-03-15T13:14:54.819Z,100.00
2019-03-15T13:17:24.516Z,100.00
2019-03-15T13:19:55.441Z,100.00
2019-03-15T13:22:22.180Z,100.00
2019-03-15T13:24:51.745Z,100.00
2019-03-15T13:27:20.138Z,100.00
2019-03-15T13:29:48.520Z,100.00
2019-03-15T13:32:16.860Z,100.00
2019-03-15T13:34:47.126Z,100.00
2019-03-15T13:37:15.484Z,100.00
2019-03-15T13:42:18.154Z,100.00
2019-03-15T13:47:20.815Z,100.00
2019-03-15T13:52:23.366Z,100.00
2019-03-15T13:54:51.776Z,100.00
2019-03-15T13:57:21.802Z,100.00
2019-03-15T13:59:49.342Z,100.00
2019-03-15T14:02:18.594Z,100.00
2019-03-15T14:04:46.935Z,100.00
2019-03-15T14:07:15.300Z,100.00
2019-03-15T14:09:43.642Z,100.00
2019-03-15T14:12:11.989Z,100.00
2019-03-15T14:14:41.324Z,100.00
2019-03-15T14:17:09.697Z,100.00
2019-03-15T14:19:38.999Z,100.00
2019-03-15T14:22:07.438Z,100.00
2019-03-15T14:24:35.772Z,100.00
2019-03-15T14:27:04.120Z,100.00
2019-03-15T14:29:32.465Z,100.00
2019-03-15T14:32:00.809Z,100.00
2019-03-15T14:34:29.159Z,100.00
2019-03-15T14:36:57.658Z,100.00
2019-03-15T14:42:00.332Z,100.00
2019-03-15T14:44:28.560Z,100.00
2019-03-15T14:46:56.810Z,100.00
2019-03-15T14:49:25.165Z,100.00
2019-03-15T14:51:53.673Z,100.00
2019-03-15T14:54:22.024Z,100.00
2019-03-15T14:56:50.376Z,100.00
2019-03-15T14:59:18.752Z,100.00
2019-03-15T15:01:47.104Z,100.00
2019-03-15T15:04:16.362Z,100.00
2019-03-15T15:06:43.802Z,100.00
2019-03-15T15:09:12.191Z,100.00
2019-03-15T15:11:40.574Z,100.00
2019-03-15T15:14:08.886Z,100.00
2019-03-15T15:16:38.194Z,100.00
2019-03-15T15:19:07.435Z,100.00
2019-03-15T15:21:35.782Z,100.00
2019-03-15T15:24:04.191Z,100.00
2019-03-15T15:26:32.556Z,100.00
2019-03-15T15:29:00.892Z,100.00
2019-03-15T15:31:29.248Z,100.00
2019-03-15T15:33:58.992Z,100.00
2019-03-15T15:36:25.950Z,100.00
2019-03-15T15:38:54.316Z,100.00
2019-03-15T15:41:22.678Z,100.00
2019-03-15T15:43:51.021Z,100.00
2019-03-15T15:46:19.373Z,100.00
2019-03-15T15:51:21.949Z,100.00
2019-03-15T15:53:51.280Z,100.00
2019-03-15T15:56:19.642Z,100.00
2019-03-15T15:58:48.033Z,100.00
2019-03-15T16:01:16.396Z,100.00
2019-03-15T16:06:21.889Z,100.00
2019-03-15T16:08:50.238Z,100.00
2019-03-15T16:11:18.584Z,100.00
2019-03-15T16:13:47.987Z,100.00
2019-03-15T16:16:19.533Z,100.00
2019-03-15T16:18:47.913Z,100.00
2019-03-15T16:21:16.263Z,100.00
2019-03-15T16:23:44.604Z,100.00
2019-03-15T16:26:12.964Z,100.00
2019-03-15T16:31:15.590Z,100.00
2019-03-15T16:33:43.960Z,100.00
2019-03-15T16:36:12.318Z,100.00
2019-03-15T16:38:42.777Z,100.00
2019-03-15T16:41:11.129Z,100.00
2019-03-15T16:43:39.546Z,100.00
2019-03-15T16:46:08.177Z,100.00
2019-03-15T16:48:36.516Z,100.00
2019-03-15T16:53:39.141Z,100.00
2019-03-15T16:56:07.588Z,100.00
2019-03-15T16:58:45.514Z,100.00
2019-03-15T17:01:04.302Z,100.00
2019-03-15T17:03:32.636Z,100.00
2019-03-15T17:08:35.234Z,100.00
2019-03-15T17:11:03.562Z,100.00
2019-03-15T17:16:06.304Z,100.00
2019-03-15T17:21:08.765Z,100.00
2019-03-15T17:23:38.229Z,100.00
2019-03-15T17:26:10.480Z,100.00
2019-03-15T17:28:39.811Z,100.00
2019-03-15T17:33:42.410Z,100.00
2019-03-15T17:36:10.749Z,100.00
2019-03-15T17:38:40.201Z,100.00
2019-03-15T17:43:43.827Z,100.00
2019-03-15T17:46:13.011Z,100.00
2019-03-15T17:48:40.540Z,100.00
2019-03-15T17:51:09.884Z,100.00
2019-03-15T17:53:39.187Z,100.00
2019-03-15T17:56:08.483Z,100.00
2019-03-15T17:58:36.862Z,100.00
2019-03-15T18:01:05.210Z,100.00
2019-03-15T18:03:35.475Z,100.00
2019-03-15T18:06:04.720Z,100.00
2019-03-15T18:08:33.065Z,100.00
2019-03-15T18:11:01.401Z,100.00
2019-03-15T18:13:31.679Z,100.00
2019-03-15T18:16:00.103Z,100.00
2019-03-15T18:18:28.500Z,100.00
2019-03-15T18:20:56.841Z,100.00
2019-03-15T18:23:25.224Z,100.00
2019-03-15T18:25:53.733Z,100.00
2019-03-15T18:28:22.089Z,100.00
2019-03-15T18:30:50.432Z,100.00
2019-03-15T18:33:19.002Z,100.00
2019-03-15T18:35:47.314Z,100.00
2019-03-15T18:38:21.516Z,100.00
2019-03-15T18:40:49.869Z,100.00
2019-03-15T18:43:18.221Z,100.00
2019-03-15T18:45:49.672Z,100.00
2019-03-15T18:48:18.034Z,100.00
2019-03-15T18:50:46.373Z,100.00
2019-03-15T18:53:15.652Z,100.00
2019-03-15T18:55:44.032Z,100.00
2019-03-15T18:58:13.336Z,100.00
2019-03-15T19:00:43.670Z,100.00
2019-03-15T19:05:50.274Z,100.00
2019-03-15T19:08:18.629Z,100.00
2019-03-15T19:10:47.122Z,100.00
2019-03-15T19:13:15.498Z,100.00
2019-03-15T19:15:44.069Z,100.00
2019-03-15T19:18:12.311Z,100.00
2019-03-15T19:20:40.755Z,100.00
2019-03-15T19:23:09.020Z,100.00
2019-03-15T19:25:37.434Z,100.00
2019-03-15T19:28:05.826Z,99.41
2019-03-15T19:30:36.262Z,99.00
2019-03-15T19:35:39.739Z,97.32
2019-03-15T19:38:08.146Z,96.34
2019-03-15T19:40:36.492Z,96.79
2019-03-15T19:43:04.948Z,96.41
2019-03-15T19:45:33.263Z,96.29
2019-03-15T19:48:01.609Z,95.60
2019-03-15T19:50:30.085Z,95.18
2019-03-15T19:52:58.446Z,94.47
2019-03-15T19:58:03.090Z,94.47
2019-03-15T20:00:31.458Z,95.09
2019-03-15T20:02:59.792Z,95.02
2019-03-15T20:05:28.149Z,92.96
2019-03-15T20:07:56.511Z,93.09
2019-03-15T20:10:24.868Z,93.89
2019-03-15T20:12:53.239Z,92.47
2019-03-15T20:15:21.560Z,92.40
2019-03-15T20:17:49.914Z,91.93
2019-03-15T20:20:19.242Z,90.44
2019-03-15T20:22:47.573Z,90.95
2019-03-15T20:25:15.935Z,91.39
2019-03-15T20:27:45.250Z,90.28
2019-03-15T20:32:48.774Z,90.26
2019-03-15T20:35:17.143Z,89.92
2019-03-15T20:40:19.720Z,88.70
2019-03-15T20:42:48.946Z,88.30
2019-03-15T20:45:23.756Z,89.46
2019-03-15T20:47:52.138Z,89.04
2019-03-15T20:50:21.466Z,88.67
2019-03-15T20:55:28.532Z,88.35
2019-03-15T20:57:53.896Z,89.07
2019-03-15T21:00:34.672Z,89.01
2019-03-15T21:02:51.640Z,88.17
2019-03-15T21:05:20.147Z,87.80
2019-03-15T21:07:49.376Z,89.17
2019-03-15T21:10:17.723Z,89.34
2019-03-15T21:12:46.106Z,88.52
2019-03-15T21:15:14.452Z,88.83
2019-03-15T21:17:42.787Z,88.36
2019-03-15T21:22:48.460Z,87.80
2019-03-15T21:25:16.799Z,88.89
2019-03-15T21:27:53.651Z,88.97
2019-03-15T21:30:18.856Z,89.10
2019-03-15T21:32:47.203Z,90.07
2019-03-15T21:35:15.575Z,90.15
2019-03-15T21:37:43.959Z,90.92
2019-03-15T21:40:12.973Z,91.45
2019-03-15T21:42:41.326Z,91.21
2019-03-15T21:45:09.685Z,91.95
2019-03-15T21:47:38.014Z,92.05
2019-03-15T21:50:08.285Z,92.55
2019-03-15T21:52:37.529Z,93.91
2019-03-15T21:55:09.830Z,93.58
2019-03-15T22:00:15.229Z,94.20
2019-03-15T22:02:43.597Z,94.49
2019-03-15T22:05:11.952Z,94.90
2019-03-15T22:07:40.272Z,94.56
2019-03-15T22:10:12.260Z,95.41
2019-03-15T22:12:40.598Z,93.43
2019-03-15T22:15:08.948Z,94.78
2019-03-15T22:17:37.402Z,95.31
2019-03-15T22:20:13.164Z,95.86
2019-03-15T22:22:41.547Z,96.56
2019-03-15T22:25:09.875Z,98.10
2019-03-15T22:27:39.148Z,99.22
2019-03-15T22:30:14.472Z,99.40
2019-03-15T22:32:42.867Z,99.58
2019-03-15T22:35:11.194Z,98.63
2019-03-15T22:37:39.535Z,99.92
2019-03-15T22:40:08.798Z,98.92
2019-03-15T22:42:37.152Z,98.84
2019-03-15T22:47:39.728Z,98.13
2019-03-15T22:50:08.060Z,97.42
2019-03-15T22:52:36.408Z,97.25
2019-03-15T22:55:04.907Z,97.50
2019-03-15T22:57:34.203Z,96.90
2019-03-15T23:00:03.490Z,96.58
2019-03-15T23:02:31.905Z,95.77
2019-03-15T23:07:36.463Z,96.27
2019-03-15T23:10:04.824Z,96.98
2019-03-15T23:12:34.131Z,97.00
2019-03-15T23:17:36.753Z,95.83
2019-03-15T23:20:05.944Z,96.63
2019-03-15T23:22:34.269Z,95.37
2019-03-15T23:25:02.604Z,93.96
2019-03-15T23:27:30.943Z,94.07
2019-03-15T23:30:01.179Z,94.75
2019-03-15T23:32:29.516Z,93.94
2019-03-15T23:34:58.988Z,94.61
2019-03-15T23:37:28.244Z,94.50
2019-03-15T23:39:56.660Z,94.14
2019-03-15T23:42:25.162Z,94.36
2019-03-15T23:44:53.544Z,93.58
2019-03-15T23:47:21.871Z,93.77
2019-03-15T23:49:50.196Z,93.83
2019-03-15T23:52:18.525Z,93.93
2019-03-15T23:54:46.874Z,93.34
2019-03-15T23:57:15.206Z,93.58
